Weather at Dvoracek Field

Public forecast

Using degrees Fahrenheit for public forecast. Weather courtesy of forecast.io.

Closest aviation weather report (METAR) to Dvoracek Field

Closest report is Charlevoix Municipal Airport, 3.9 nm (7.3 km) NNW. Retrieved 2021/10/28 09:35 UTC (5 minutes ago):

KCVX 280935Z AUTO 10007KT 10SM OVC014 11/08 A2989 RMK AO2 T01050082

Closest aviation forecast (TAF) to Dvoracek Field

Closest forecast is Pellston Regional Airport of Emmet County Airport, 27.0 nm (50.1 km) NE. Retrieved 2021/10/28 06:24 UTC (3 hours ago):

TAF KPLN 280521Z 2806/2906 13006KT P6SM OVC010 FM281400 10005KT P6SM OVC012 FM281600 10009KT P6SM BKN026 FM281800 09010G16KT P6SM BKN220 FM290300 09007KT P6SM BKN150